Skip Navigation LinksHome page > Weather > Current weather Skip Navigation Links

Current Weather

Eureka, Nunavut

For information only: do not use for flight planning or navigation.
Latest weather
Observation time Sunday, September 25, 2016 8:00 AM CDT
Local time Sunday, September 25, 2016 9:04 AM CDT
Flight conditions Marginal Visual Meteorological Conditions
Winds
Wind direction South-Southeast (150°)
Wind speed 22 mph
Wind gusting to 29 mph
Visibility 15 mi.
Sky condition
Ceiling 2,400 ft. overcast
Cloud layer few clouds 1,600 ft.
Cloud layer overcast 2,400 ft.
Cloud layer overcast 10,000 ft.
Temperature 36°F
Dewpoint 30°F
Altimeter 29.67 in.Hg
Derived measurements
Relative humidity 80%
Wind chill 24°F
Density altitude -1171 ft.
Sea-level pressure 29.68 in.Hg
METAR CWEU 251300Z 15019G25KT 15SM FEW016 OVC024 OVC100 02/M01 A2967 RMK CF1SC8AC1 CF TR AC TR SLP051

Settings

Location code

InnerDrive.Weather 4.0.5722.1 Release CLR 4.0.30319.34209
Copyright ©2015 Inner Drive Technology. All rights reserved. Portions Copyright ©1986-2015 David Braverman.

Find weather

Site navigation


Skip Navigation Links

Place info

Page info

PayPal - The safer, easier way to pay online!

Return home.

Copyright ©2016 Inner Drive Technology. Purveyors of fine, hand-crafted computer software. Page printed 2016-09-25T14:04:14 UTC.